General Aviation Weather

Text Reports

Enter one or more of the following location identifiers separated by a space:

Zip Code, Four-Character ICAO or Three-Character IATA airport codes.

METAR - Aviation Routine Weather Report
KTAN - Taunton, Massachusetts
Updated at 10:52 PM GMT on December 28, 2014 (5:52 PM EST):
METAR KTAN 282252Z AUTO 27006KT 10SM CLR 08/00 A2989 RMK AO2 SLP122 T00830000
TAF - Terminal Area Forecast
KTAN - Taunton, Massachusetts
Updated at 10:52 PM GMT on December 28, 2014 (5:52 PM EST):
No TAF is currently available for this location.
Decoded:
No decoded TAF is available.
PIREP - Pilot Weather Report
KTAN - Taunton, Massachusetts
Updated at 10:52 PM GMT on December 28, 2014 (5:52 PM EST):
No PIREP is currently available for this location.
AIRMET - Airmens Meteorological Information
KTAN - Taunton, Massachusetts
Updated at 10:52 PM GMT on December 28, 2014 (5:52 PM EST):
No AIRMET is currently available for this location.
SIGMET - Significant Meteorological Information
KTAN - Taunton, Massachusetts
Updated at 10:52 PM GMT on December 28, 2014 (5:52 PM EST):
No SIGMET is currently available for this location.
NOTAM - Notice to Airmen
KTAN - Taunton, Massachusetts
Updated at 10:52 PM GMT on December 28, 2014 (5:52 PM EST):
No NOTAM is currently available for this location.
Forecast Area
KTAN - Taunton, Massachusetts
Updated at 10:52 PM GMT on December 28, 2014 (5:52 PM EST):
No NOTAM is currently available for this location.
Aviation Weather Maps